Time;durP1;ratioP1;P1;durP2;ratioP2;P2;SDS_P1;SDS_P2;PMS_P1;PMS_P2;Temp;Humidity;BMP_temperature;BMP_pressure;BME280_temperature;BME280_humidity;BME280_pressure;Samples;Min_cycle;Max_cycle;Signal;HPM_P1;HPM_P2
2021/08/14 00:00:57;;;;;;;17.03;15.00;;;24.80;1.00;;;;;;5091297;28;20198;-52
2021/08/14 00:03:23;;;;;;;16.00;14.30;;;;;;;;;;5081622;28;20175;-53
2021/08/14 00:05:49;;;;;;;17.07;15.40;;;24.90;1.00;;;;;;5073429;28;20641;-54
2021/08/14 00:08:14;;;;;;;15.90;14.23;;;24.80;1.00;;;;;;5086679;28;20442;-54
2021/08/14 00:10:40;;;;;;;16.47;13.73;;;;;;;;;;5075033;28;20213;-53
2021/08/14 00:13:06;;;;;;;14.10;12.77;;;24.70;1.00;;;;;;5089772;28;20195;-55
2021/08/14 00:15:31;;;;;;;20.13;13.20;;;24.60;1.00;;;;;;5090161;28;20486;-53
2021/08/14 00:17:57;;;;;;;14.30;12.87;;;24.60;1.00;;;;;;5088148;28;20533;-53
2021/08/14 00:20:23;;;;;;;15.60;14.00;;;24.70;1.00;;;;;;5077715;28;20201;-53
2021/08/14 00:22:48;;;;;;;14.60;11.97;;;;;;;;;;5071793;28;20221;-53
2021/08/14 00:25:14;;;;;;;13.63;11.90;;;24.70;1.00;;;;;;5077682;28;20269;-57
2021/08/14 00:27:39;;;;;;;12.77;11.47;;;24.70;1.00;;;;;;5091311;28;20984;-54
2021/08/14 00:30:06;;;;;;;14.20;12.47;;;24.50;1.00;;;;;;5079697;28;20260;-52
2021/08/14 00:32:32;;;;;;;14.83;12.50;;;24.60;1.00;;;;;;5072539;28;20691;-56
2021/08/14 00:34:57;;;;;;;12.63;11.30;;;24.60;1.00;;;;;;5077560;28;20495;-54
2021/08/14 00:37:23;;;;;;;17.20;11.90;;;24.50;1.00;;;;;;5091232;28;20189;-54
2021/08/14 00:39:50;;;;;;;15.50;12.13;;;24.50;1.00;;;;;;5088242;28;20197;-54
2021/08/14 00:42:15;;;;;;;14.43;12.93;;;24.60;1.00;;;;;;5082314;28;20582;-53
2021/08/14 00:44:41;;;;;;;13.50;11.60;;;24.50;1.00;;;;;;5077422;28;20590;-53
2021/08/14 00:47:07;;;;;;;11.93;10.80;;;24.50;1.00;;;;;;5084747;28;20240;-55
2021/08/14 00:49:33;;;;;;;14.70;11.40;;;24.50;1.00;;;;;;5080047;28;20241;-54
2021/08/14 00:51:59;;;;;;;12.83;11.53;;;24.50;1.00;;;;;;5084496;28;20387;-53
2021/08/14 00:54:24;;;;;;;11.83;10.60;;;24.60;1.00;;;;;;5086693;28;20227;-52
2021/08/14 00:56:50;;;;;;;12.80;11.30;;;24.50;1.00;;;;;;5081910;28;20532;-54
2021/08/14 00:59:16;;;;;;;13.10;10.37;;;24.50;1.00;;;;;;5071053;28;20184;-53
2021/08/14 01:01:41;;;;;;;12.50;10.00;;;24.40;1.00;;;;;;5076877;28;20651;-54
2021/08/14 01:04:12;;;;;;;12.20;11.00;;;24.40;1.00;;;;;;5086112;28;20437;-54
2021/08/14 01:06:38;;;;;;;11.93;10.87;;;24.30;1.00;;;;;;5085348;28;20270;-52
2021/08/14 01:09:04;;;;;;;12.20;11.00;;;24.30;1.00;;;;;;5076557;28;20519;-53
2021/08/14 01:11:29;;;;;;;12.37;11.03;;;24.40;1.00;;;;;;5078447;28;20218;-53
2021/08/14 01:13:56;;;;;;;13.00;11.43;;;24.40;1.00;;;;;;5085872;28;20262;-51
2021/08/14 01:16:22;;;;;;;12.50;10.60;;;24.30;1.00;;;;;;5080159;28;20206;-54
2021/08/14 01:18:48;;;;;;;12.73;11.43;;;24.30;1.00;;;;;;5086904;28;20459;-53
2021/08/14 01:21:18;;;;;;;12.10;10.97;;;24.20;1.00;;;;;;5076301;28;20193;-56
2021/08/14 01:23:45;;;;;;;12.07;10.80;;;24.10;1.00;;;;;;5077941;28;20276;-53
2021/08/14 01:26:13;;;;;;;17.20;10.80;;;24.20;1.00;;;;;;5074769;28;20471;-52
2021/08/14 01:28:39;;;;;;;12.40;11.20;;;24.20;1.00;;;;;;5092973;28;20480;-54
2021/08/14 01:31:07;;;;;;;12.07;10.87;;;24.20;1.00;;;;;;5081677;28;20518;-52
2021/08/14 01:33:35;;;;;;;12.03;10.80;;;24.20;1.00;;;;;;5093530;28;20833;-53
2021/08/14 01:36:01;;;;;;;11.90;10.70;;;24.10;1.00;;;;;;5092200;28;20488;-53
2021/08/14 01:38:27;;;;;;;10.90;9.90;;;24.00;1.00;;;;;;5083601;28;20491;-53
2021/08/14 01:40:53;;;;;;;12.80;10.90;;;24.10;1.00;;;;;;5075709;28;20532;-52
2021/08/14 01:43:20;;;;;;;12.10;10.77;;;24.10;1.00;;;;;;5088111;28;20632;-53
2021/08/14 01:45:48;;;;;;;12.20;10.87;;;24.10;1.00;;;;;;5093343;28;20274;-52
2021/08/14 01:48:15;;;;;;;12.03;10.83;;;24.10;1.00;;;;;;5093267;28;20456;-52
2021/08/14 01:50:40;;;;;;;13.53;11.50;;;26.10;1.00;;;;;;5080655;28;20476;-54
2021/08/14 01:53:06;;;;;;;12.23;11.13;;;24.00;1.00;;;;;;5090433;28;20445;-54
2021/08/14 01:55:31;;;;;;;12.60;11.40;;;23.90;1.00;;;;;;5093265;28;20258;-53
2021/08/14 01:57:57;;;;;;;12.50;11.20;;;23.90;1.00;;;;;;5080720;28;20198;-54
2021/08/14 02:00:23;;;;;;;13.83;11.87;;;23.80;1.00;;;;;;5077361;28;20186;-52
2021/08/14 02:02:48;;;;;;;12.80;11.60;;;23.70;1.00;;;;;;5085075;28;20225;-53
2021/08/14 02:05:14;;;;;;;13.93;12.53;;;23.70;1.00;;;;;;5085031;28;20195;-54
2021/08/14 02:07:40;;;;;;;13.90;12.60;;;23.70;1.00;;;;;;5075866;28;20179;-55
2021/08/14 02:10:06;;;;;;;13.07;11.80;;;23.60;1.00;;;;;;5084029;28;20207;-52
2021/08/14 02:12:32;;;;;;;16.40;12.03;;;23.50;1.00;;;;;;5087166;28;20209;-52
2021/08/14 02:14:57;;;;;;;13.97;12.57;;;23.30;1.00;;;;;;5092192;28;20468;-54
2021/08/14 02:17:23;;;;;;;13.70;12.33;;;23.60;1.00;;;;;;5090677;28;20226;-54
2021/08/14 02:19:48;;;;;;;14.00;12.60;;;23.40;1.00;;;;;;5079277;28;20195;-53
2021/08/14 02:22:14;;;;;;;14.60;12.60;;;23.40;1.00;;;;;;5093764;28;20182;-52
2021/08/14 02:24:39;;;;;;;12.43;11.30;;;23.40;1.00;;;;;;5090888;28;20663;-53
2021/08/14 02:27:05;;;;;;;14.33;12.93;;;23.50;1.00;;;;;;5086112;28;20190;-52
2021/08/14 02:29:33;;;;;;;15.43;12.07;;;23.50;1.00;;;;;;5086035;28;20676;-52
2021/08/14 02:31:59;;;;;;;14.10;12.60;;;23.50;1.00;;;;;;5089951;28;20264;-53
2021/08/14 02:34:25;;;;;;;12.70;11.50;;;23.40;1.00;;;;;;5090182;28;20608;-51
2021/08/14 02:36:51;;;;;;;14.53;12.90;;;23.40;1.00;;;;;;5086952;28;20503;-55
2021/08/14 02:39:16;;;;;;;14.17;12.83;;;23.40;1.00;;;;;;5084332;28;20933;-53
2021/08/14 02:41:42;;;;;;;12.90;11.67;;;23.40;1.00;;;;;;5077886;28;20186;-52
2021/08/14 02:44:08;;;;;;;13.27;11.97;;;23.40;1.00;;;;;;5076839;28;20187;-54
2021/08/14 02:46:33;;;;;;;13.10;11.47;;;23.40;1.00;;;;;;5078867;28;20197;-53
2021/08/14 02:48:59;;;;;;;13.33;11.90;;;23.40;1.00;;;;;;5089007;28;20814;-54
2021/08/14 02:51:24;;;;;;;13.93;12.50;;;23.30;1.00;;;;;;5073499;28;20209;-53
2021/08/14 02:53:50;;;;;;;12.37;11.10;;;23.30;1.00;;;;;;5074314;28;20680;-55
2021/08/14 02:56:16;;;;;;;13.60;12.17;;;23.20;1.00;;;;;;5075120;28;20199;-54
2021/08/14 02:58:41;;;;;;;13.50;12.13;;;23.20;1.00;;;;;;5090947;28;20185;-53
2021/08/14 03:01:07;;;;;;;12.83;11.57;;;23.20;1.00;;;;;;5085664;28;20269;-54
2021/08/14 03:03:32;;;;;;;12.60;11.50;;;23.20;1.00;;;;;;5078845;28;20566;-53
2021/08/14 03:05:58;;;;;;;12.73;11.50;;;23.30;1.00;;;;;;5090229;28;20183;-53
2021/08/14 03:08:23;;;;;;;14.00;10.57;;;23.30;1.00;;;;;;5089082;28;20191;-53
2021/08/14 03:10:49;;;;;;;12.37;11.00;;;23.30;1.00;;;;;;5091042;28;20210;-53
2021/08/14 03:13:15;;;;;;;15.60;10.67;;;23.30;1.00;;;;;;5090295;28;20187;-53
2021/08/14 03:15:41;;;;;;;11.37;10.37;;;23.30;1.00;;;;;;5084871;28;20187;-54
2021/08/14 03:18:07;;;;;;;11.50;10.40;;;23.30;1.00;;;;;;5088909;28;20823;-52
2021/08/14 03:20:33;;;;;;;10.23;9.23;;;23.20;1.00;;;;;;5090980;28;20467;-54
2021/08/14 03:22:58;;;;;;;10.80;9.33;;;23.20;1.00;;;;;;5076015;28;20244;-52
2021/08/14 03:25:24;;;;;;;11.60;9.47;;;23.00;1.00;;;;;;5092375;28;20803;-55
2021/08/14 03:27:53;;;;;;;10.67;9.07;;;23.00;1.00;;;;;;5092412;28;20189;-53
2021/08/14 03:30:19;;;;;;;15.13;9.03;;;22.80;1.00;;;;;;5081889;28;20503;-52
2021/08/14 03:32:45;;;;;;;9.90;8.90;;;22.70;1.00;;;;;;5086219;28;20468;-52
2021/08/14 03:35:12;;;;;;;9.30;8.40;;;22.80;1.00;;;;;;5092205;28;20667;-53
2021/08/14 03:37:38;;;;;;;10.00;9.10;;;22.70;1.00;;;;;;5084600;28;20444;-52
2021/08/14 03:40:06;;;;;;;12.67;9.60;;;22.60;1.00;;;;;;5082730;28;20505;-55
2021/08/14 03:42:32;;;;;;;10.50;9.23;;;22.50;1.00;;;;;;5077253;28;20214;-52
2021/08/14 03:44:57;;;;;;;10.30;8.83;;;22.50;1.00;;;;;;5091699;28;20440;-52
2021/08/14 03:47:23;;;;;;;12.00;8.97;;;22.50;1.00;;;;;;5078909;28;20244;-53
2021/08/14 03:49:48;;;;;;;9.67;8.67;;;22.40;1.00;;;;;;5083143;28;20203;-52
2021/08/14 03:52:14;;;;;;;10.03;8.93;;;22.50;1.00;;;;;;5091750;28;20255;-54
2021/08/14 03:54:43;;;;;;;9.50;8.43;;;22.40;1.00;;;;;;5077799;28;20184;-54
2021/08/14 03:57:09;;;;;;;9.73;8.70;;;22.40;1.00;;;;;;5074988;28;20440;-54
2021/08/14 03:59:34;;;;;;;9.93;9.03;;;22.40;1.00;;;;;;5079012;28;20447;-53
2021/08/14 04:02:00;;;;;;;9.83;8.93;;;22.40;1.00;;;;;;5082919;28;20217;-53
2021/08/14 04:04:25;;;;;;;9.93;8.93;;;22.40;1.00;;;;;;5087444;28;20209;-52
2021/08/14 04:06:51;;;;;;;10.27;9.27;;;22.30;1.00;;;;;;5089571;28;20187;-52
2021/08/14 04:09:16;;;;;;;9.43;8.60;;;22.20;1.00;;;;;;5090257;28;20273;-53
2021/08/14 04:11:48;;;;;;;9.80;8.90;;;22.20;1.00;;;;;;5084214;28;20174;-51
2021/08/14 04:14:13;;;;;;;10.80;9.70;;;22.20;1.00;;;;;;5090812;28;20598;-54
2021/08/14 04:16:39;;;;;;;10.13;9.13;;;22.10;1.00;;;;;;5088514;28;20494;-55
2021/08/14 04:19:04;;;;;;;10.43;9.47;;;22.20;1.00;;;;;;5085167;28;20194;-56
2021/08/14 04:21:30;;;;;;;10.53;9.03;;;22.10;1.00;;;;;;5089174;28;20187;-56
2021/08/14 04:23:55;;;;;;;10.40;9.30;;;22.20;1.00;;;;;;5088499;28;20540;-54
2021/08/14 04:26:21;;;;;;;10.40;9.07;;;22.20;1.00;;;;;;5080837;28;20251;-53
2021/08/14 04:28:46;;;;;;;9.13;8.07;;;22.20;1.00;;;;;;5070928;28;20195;-53
2021/08/14 04:31:12;;;;;;;10.23;9.23;;;22.20;1.00;;;;;;5083243;28;20217;-54
2021/08/14 04:33:37;;;;;;;9.87;8.73;;;22.20;1.00;;;;;;5086822;28;20178;-54
2021/08/14 04:36:03;;;;;;;9.73;8.63;;;22.10;1.00;;;;;;5077087;28;20183;-55
2021/08/14 04:38:29;;;;;;;12.10;8.87;;;22.10;1.00;;;;;;5074759;28;20175;-53
2021/08/14 04:40:54;;;;;;;12.50;8.80;;;22.20;1.00;;;;;;5078620;28;20261;-53
2021/08/14 04:43:20;;;;;;;9.43;8.43;;;22.30;1.00;;;;;;5085964;28;20528;-54
2021/08/14 04:45:45;;;;;;;9.40;8.40;;;22.40;1.00;;;;;;5080599;28;20193;-53
2021/08/14 04:48:11;;;;;;;13.20;8.40;;;22.60;1.00;;;;;;5091223;28;20244;-54
2021/08/14 04:50:36;;;;;;;8.50;7.70;;;22.50;1.00;;;;;;5078041;28;20207;-53
2021/08/14 04:53:02;;;;;;;9.90;9.00;;;22.60;1.00;;;;;;5077561;28;20186;-53
2021/08/14 04:55:28;;;;;;;9.00;8.13;;;22.60;1.00;;;;;;5079207;28;20183;-52
2021/08/14 04:57:53;;;;;;;8.77;7.97;;;22.50;1.00;;;;;;5090033;28;20493;-54
2021/08/14 05:00:19;;;;;;;9.47;8.50;;;22.50;1.00;;;;;;5070957;28;20222;-53
2021/08/14 05:02:44;;;;;;;10.93;8.40;;;22.60;1.00;;;;;;5078388;28;20191;-52
2021/08/14 05:05:10;;;;;;;11.20;9.43;;;22.60;1.00;;;;;;5090616;28;20191;-55
2021/08/14 05:07:35;;;;;;;9.07;8.17;;;22.70;1.00;;;;;;5092701;28;20174;-55
2021/08/14 05:10:02;;;;;;;9.20;8.30;;;22.70;1.00;;;;;;5094444;28;20301;-53
2021/08/14 05:12:28;;;;;;;10.73;9.63;;;23.00;1.00;;;;;;5088891;28;20208;-52
2021/08/14 05:14:53;;;;;;;9.17;8.27;;;22.80;1.00;;;;;;5081589;28;20997;-54
2021/08/14 05:17:19;;;;;;;10.63;8.57;;;22.70;1.00;;;;;;5081728;28;20215;-54
2021/08/14 05:19:44;;;;;;;10.70;8.83;;;22.90;1.00;;;;;;5088108;28;20288;-53
2021/08/14 05:22:10;;;;;;;10.00;8.63;;;22.80;1.00;;;;;;5074475;28;20183;-53
2021/08/14 05:24:35;;;;;;;9.50;8.40;;;22.80;1.00;;;;;;5075390;28;20183;-53
2021/08/14 05:27:01;;;;;;;8.60;7.80;;;23.90;1.00;;;;;;5075911;28;20550;-53
2021/08/14 05:29:26;;;;;;;9.90;8.90;;;23.00;1.00;;;;;;5090048;28;20182;-53
2021/08/14 05:31:52;;;;;;;10.30;8.80;;;23.10;1.00;;;;;;5087886;28;20178;-54
2021/08/14 05:34:17;;;;;;;9.30;8.40;;;23.30;1.00;;;;;;5094193;28;20261;-54
2021/08/14 05:36:43;;;;;;;9.43;8.53;;;23.30;1.00;;;;;;5084266;28;20258;-54
2021/08/14 05:39:09;;;;;;;9.97;8.97;;;23.30;1.00;;;;;;5080173;28;20178;-54
2021/08/14 05:41:39;;;;;;;10.33;8.80;;;23.50;1.00;;;;;;5079325;28;20194;-53
2021/08/14 05:44:05;;;;;;;10.87;8.13;;;23.50;1.00;;;;;;5074123;28;20211;-53
2021/08/14 05:46:31;;;;;;;9.20;8.40;;;23.50;1.00;;;;;;5086103;28;20443;-53
2021/08/14 05:48:56;;;;;;;9.13;8.23;;;23.50;1.00;;;;;;5090329;28;20445;-54
2021/08/14 05:51:24;;;;;;;9.87;8.97;;;23.60;1.00;;;;;;5093890;28;20198;-54
2021/08/14 05:53:49;;;;;;;11.53;8.63;;;23.60;1.00;;;;;;5087034;28;20188;-54
2021/08/14 05:56:15;;;;;;;10.30;9.00;;;23.50;1.00;;;;;;5076606;28;20778;-53
2021/08/14 05:58:40;;;;;;;10.10;9.10;;;23.40;1.00;;;;;;5093303;28;20175;-53
2021/08/14 06:01:06;;;;;;;9.40;8.40;;;23.30;1.00;;;;;;5093713;28;20175;-52
2021/08/14 06:03:34;;;;;;;9.20;8.30;;;23.30;1.00;;;;;;5090292;28;20574;-52
2021/08/14 06:06:00;;;;;;;9.40;8.47;;;23.30;1.00;;;;;;5092750;28;20433;-54
2021/08/14 06:08:25;;;;;;;10.50;9.33;;;23.40;1.00;;;;;;5093082;28;20440;-52
2021/08/14 06:10:51;;;;;;;9.57;8.60;;;23.40;1.00;;;;;;5081911;28;20206;-52
2021/08/14 06:13:16;;;;;;;9.03;8.13;;;23.50;1.00;;;;;;5088262;28;20650;-55
2021/08/14 06:15:42;;;;;;;8.70;7.10;;;23.50;1.00;;;;;;5075083;28;20180;-54
2021/08/14 06:18:11;;;;;;;9.90;7.60;;;23.50;1.00;;;;;;5093582;28;20218;-53
2021/08/14 06:20:36;;;;;;;9.00;7.27;;;23.60;1.00;;;;;;5085053;28;20547;-53
2021/08/14 06:23:02;;;;;;;9.60;8.53;;;23.60;1.00;;;;;;5093363;28;20452;-53
2021/08/14 06:25:27;;;;;;;9.50;8.27;;;23.70;1.00;;;;;;5075479;28;20179;-54
2021/08/14 06:27:53;;;;;;;8.70;7.80;;;23.80;1.00;;;;;;5085464;28;20266;-56
2021/08/14 06:30:18;;;;;;;8.23;7.17;;;23.90;1.00;;;;;;5073153;28;20597;-53
2021/08/14 06:32:44;;;;;;;9.77;7.87;;;24.20;1.00;;;;;;5081281;28;20203;-55
2021/08/14 06:35:10;;;;;;;7.77;6.80;;;24.10;1.00;;;;;;5073590;28;20231;-53
2021/08/14 06:37:43;;;;;;;8.60;7.70;;;24.10;1.00;;;;;;5078282;28;20698;-53
2021/08/14 06:40:10;;;;;;;9.23;8.00;;;24.30;1.00;;;;;;5082227;28;20505;-54
2021/08/14 06:42:36;;;;;;;8.10;7.27;;;24.30;1.00;;;;;;5090483;28;20937;-53
2021/08/14 06:45:02;;;;;;;13.40;11.70;;;24.50;1.00;;;;;;5078940;28;20451;-55
2021/08/14 06:47:28;;;;;;;8.53;7.03;;;24.40;1.00;;;;;;5090791;28;20185;-52
2021/08/14 06:49:53;;;;;;;8.93;7.93;;;24.50;1.00;;;;;;5090130;28;20469;-52
2021/08/14 06:52:19;;;;;;;11.70;8.93;;;24.60;1.00;;;;;;5093323;28;20233;-53
2021/08/14 06:54:44;;;;;;;8.57;7.50;;;24.80;1.00;;;;;;5092456;28;20185;-54
2021/08/14 06:57:10;;;;;;;7.77;7.00;;;25.00;1.00;;;;;;5093259;28;20529;-54
2021/08/14 06:59:35;;;;;;;8.10;7.40;;;25.10;1.00;;;;;;5085037;28;20194;-53
2021/08/14 07:02:01;;;;;;;10.33;8.07;;;25.30;1.00;;;;;;5084605;28;20195;-53
2021/08/14 07:04:26;;;;;;;8.37;7.50;;;25.30;1.00;;;;;;5083684;28;20198;-53
2021/08/14 07:06:52;;;;;;;8.53;7.73;;;25.50;1.00;;;;;;5078890;28;20183;-53
2021/08/14 07:09:18;;;;;;;10.30;9.23;;;25.60;1.00;;;;;;5073944;28;20182;-56
2021/08/14 07:11:45;;;;;;;8.60;7.43;;;25.50;1.00;;;;;;5077673;28;20177;-55
2021/08/14 07:14:11;;;;;;;8.77;7.87;;;25.60;1.00;;;;;;5081312;28;20432;-54
2021/08/14 07:16:37;;;;;;;9.57;8.17;;;25.60;1.00;;;;;;5091961;28;20476;-54
2021/08/14 07:19:02;;;;;;;8.20;7.47;;;25.70;1.00;;;;;;5092185;28;20441;-54
2021/08/14 07:21:28;;;;;;;8.33;7.53;;;25.80;1.00;;;;;;5092367;28;20191;-53
2021/08/14 07:23:54;;;;;;;9.40;7.67;;;25.90;1.00;;;;;;5091562;28;20183;-52
2021/08/14 07:26:20;;;;;;;8.20;7.33;;;25.90;1.00;;;;;;5079334;28;20445;-53
2021/08/14 07:28:45;;;;;;;9.10;6.80;;;26.10;1.00;;;;;;5082450;28;20266;-55
2021/08/14 07:31:11;;;;;;;9.70;8.20;;;26.50;1.00;;;;;;5076729;28;20687;-54
2021/08/14 07:33:36;;;;;;;11.17;9.30;;;26.70;1.00;;;;;;5080917;28;20179;-52
2021/08/14 07:36:02;;;;;;;8.30;7.50;;;26.40;1.00;;;;;;5073631;28;20183;-54
2021/08/14 07:38:28;;;;;;;9.77;8.73;;;26.20;1.00;;;;;;5074015;28;20188;-53
2021/08/14 07:40:54;;;;;;;10.50;8.23;;;26.30;1.00;;;;;;5078140;28;20191;-55
2021/08/14 07:43:19;;;;;;;11.70;8.93;;;26.10;1.00;;;;;;5091672;28;20236;-53
2021/08/14 07:45:45;;;;;;;8.40;7.60;;;25.70;1.00;;;;;;5076591;28;20190;-55
2021/08/14 07:48:10;;;;;;;9.40;8.50;;;25.70;1.00;;;;;;5074607;28;20191;-53
2021/08/14 07:50:36;;;;;;;7.43;6.83;;;26.00;1.00;;;;;;5090764;28;20237;-52
2021/08/14 07:53:03;;;;;;;8.83;7.93;;;26.10;1.00;;;;;;5081509;28;20187;-52
2021/08/14 07:55:30;;;;;;;8.13;7.43;;;26.10;1.00;;;;;;5074736;28;20811;-53
2021/08/14 07:57:55;;;;;;;8.47;7.63;;;26.30;1.00;;;;;;5074295;28;20960;-54
2021/08/14 08:00:22;;;;;;;8.17;7.47;;;26.50;1.00;;;;;;5079043;28;20473;-53
2021/08/14 08:02:48;;;;;;;11.10;7.50;;;26.80;1.00;;;;;;5091408;28;20266;-53
2021/08/14 08:05:14;;;;;;;8.43;7.63;;;27.00;1.00;;;;;;5089558;28;20523;-53
2021/08/14 08:07:40;;;;;;;7.57;6.90;;;27.30;1.00;;;;;;5078555;28;20220;-52
2021/08/14 08:10:10;;;;;;;8.40;6.77;;;27.60;1.00;;;;;;5079785;28;20199;-52
2021/08/14 08:12:35;;;;;;;8.50;7.70;;;27.80;1.00;;;;;;5087350;28;20433;-54
2021/08/14 08:15:01;;;;;;;8.23;6.23;;;27.70;1.00;;;;;;5090575;28;20917;-54
2021/08/14 08:17:26;;;;;;;7.03;6.43;;;27.60;1.00;;;;;;5082663;28;20332;-54
2021/08/14 08:19:52;;;;;;;7.90;7.00;;;27.70;1.00;;;;;;5089668;28;20213;-53
2021/08/14 08:22:18;;;;;;;7.00;6.30;;;27.90;1.00;;;;;;5091047;28;20202;-53
2021/08/14 08:24:44;;;;;;;8.07;7.27;;;28.00;1.00;;;;;;5090801;28;20416;-54
2021/08/14 08:27:10;;;;;;;9.43;7.30;;;28.10;1.00;;;;;;5080915;28;20503;-52
2021/08/14 08:29:35;;;;;;;8.33;7.03;;;28.00;1.00;;;;;;5080428;28;20285;-54
2021/08/14 08:32:01;;;;;;;8.53;6.73;;;28.20;1.00;;;;;;5070973;28;20187;-54
2021/08/14 08:34:27;;;;;;;7.50;6.80;;;28.20;1.00;;;;;;5072498;28;20645;-53
2021/08/14 08:36:53;;;;;;;7.37;6.30;;;28.10;1.00;;;;;;5073232;28;20579;-55
2021/08/14 08:39:19;;;;;;;6.23;5.63;;;27.50;1.00;;;;;;5089160;28;20186;-52
2021/08/14 08:41:44;;;;;;;7.57;6.03;;;27.30;1.00;;;;;;5074496;28;20499;-53
2021/08/14 08:44:10;;;;;;;6.97;6.27;;;27.30;1.00;;;;;;5073355;28;20176;-53
2021/08/14 08:46:36;;;;;;;6.30;5.70;;;27.70;1.00;;;;;;5090761;28;20206;-53
2021/08/14 08:49:03;;;;;;;6.50;5.80;;;27.90;1.00;;;;;;5085242;28;20186;-54
2021/08/14 08:51:32;;;;;;;6.30;5.70;;;28.20;1.00;;;;;;5086161;28;20201;-53
2021/08/14 08:53:58;;;;;;;6.97;6.10;;;28.20;1.00;;;;;;5090466;28;20444;-54
2021/08/14 08:56:24;;;;;;;7.07;5.20;;;28.00;1.00;;;;;;5088356;28;20444;-54
2021/08/14 08:58:49;;;;;;;6.80;5.77;;;27.90;1.00;;;;;;5090581;28;20469;-54
2021/08/14 09:01:15;;;;;;;7.33;6.53;;;28.10;1.00;;;;;;5078682;28;20183;-54
2021/08/14 09:03:41;;;;;;;8.87;6.27;;;28.20;1.00;;;;;;5080770;28;20187;-53
2021/08/14 09:06:06;;;;;;;8.30;6.30;;;28.10;1.00;;;;;;5072563;28;20214;-55
2021/08/14 09:08:32;;;;;;;6.30;5.70;;;28.00;1.00;;;;;;5081158;28;20205;-53
2021/08/14 09:11:12;;;;;;;6.77;6.10;;;27.90;1.00;;;;;;5091066;28;20305;-55
2021/08/14 09:13:58;;;;;;;7.00;6.30;;;27.90;1.00;;;;;;5090524;28;20178;-53
2021/08/14 09:16:24;;;;;;;6.60;6.00;;;28.10;1.00;;;;;;5090221;28;20448;-53
2021/08/14 09:18:57;;;;;;;6.60;5.90;;;28.30;1.00;;;;;;5090637;28;20513;-53
2021/08/14 09:21:37;;;;;;;6.50;5.80;;;28.40;1.00;;;;;;5090675;28;20183;-53
2021/08/14 09:24:04;;;;;;;6.03;5.40;;;28.40;1.00;;;;;;5090738;28;20869;-54
2021/08/14 09:26:53;;;;;;;7.43;6.50;;;28.40;1.00;;;;;;5090006;28;20435;-53
2021/08/14 09:29:37;;;;;;;6.00;5.40;;;28.40;1.00;;;;;;5080147;28;20438;-54
2021/08/14 09:32:06;;;;;;;5.93;5.10;;;28.50;1.00;;;;;;5073257;28;20479;-54
2021/08/14 09:34:32;;;;;;;5.90;4.90;;;28.60;1.00;;;;;;5087884;28;20633;-54
2021/08/14 09:37:03;;;;;;;6.97;5.77;;;28.60;1.00;;;;;;5090502;28;20925;-54
2021/08/14 09:39:30;;;;;;;6.73;5.70;;;28.80;1.00;;;;;;5090700;28;20428;-55
2021/08/14 09:42:04;;;;;;;6.43;5.50;;;28.80;1.00;;;;;;5080037;28;20468;-54
2021/08/14 09:44:30;;;;;;;5.50;5.00;;;29.20;1.00;;;;;;5079935;28;20511;-53
2021/08/14 09:46:55;;;;;;;13.90;6.50;;;29.30;1.00;;;;;;5087420;28;20999;-56
2021/08/14 09:49:23;;;;;;;5.00;4.60;;;28.60;1.00;;;;;;5074189;28;20200;-53
2021/08/14 09:51:48;;;;;;;6.00;5.50;;;28.60;1.00;;;;;;5082146;28;20190;-53
2021/08/14 09:54:14;;;;;;;5.63;5.07;;;28.40;1.00;;;;;;5086366;28;20448;-53
2021/08/14 09:56:39;;;;;;;7.50;5.77;;;27.90;1.00;;;;;;5091609;28;20195;-54
2021/08/14 09:59:06;;;;;;;5.70;5.20;;;28.00;1.00;;;;;;5074806;28;20256;-55
2021/08/14 10:01:37;;;;;;;5.50;5.00;;;28.00;1.00;;;;;;5073540;28;20184;-53
2021/08/14 10:04:02;;;;;;;6.10;5.00;;;28.00;1.00;;;;;;5078241;28;20441;-54
2021/08/14 10:06:29;;;;;;;5.07;4.57;;;28.40;1.00;;;;;;5073744;28;20421;-54
2021/08/14 10:08:55;;;;;;;4.90;4.40;;;28.30;1.00;;;;;;5076782;28;20278;-54
2021/08/14 10:11:21;;;;;;;5.60;4.63;;;28.50;1.00;;;;;;5073564;28;20468;-53
2021/08/14 10:13:47;;;;;;;4.90;4.47;;;28.60;1.00;;;;;;5080776;28;20528;-53
2021/08/14 10:16:15;;;;;;;5.83;4.43;;;28.90;1.00;;;;;;5077550;28;20794;-53
2021/08/14 10:18:42;;;;;;;7.00;5.30;;;29.20;1.00;;;;;;5084856;28;20888;-55
2021/08/14 10:21:13;;;;;;;5.30;4.37;;;29.00;1.00;;;;;;5083175;28;20438;-55
2021/08/14 10:23:40;;;;;;;5.27;4.37;;;29.00;1.00;;;;;;5073412;28;20955;-55
2021/08/14 10:26:07;;;;;;;5.70;4.83;;;28.90;1.00;;;;;;5083704;28;21218;-54
2021/08/14 10:28:50;;;;;;;4.70;4.30;;;28.70;1.00;;;;;;5075033;28;20453;-54
2021/08/14 10:31:30;;;;;;;5.20;4.63;;;28.50;1.00;;;;;;5075030;28;20458;-54
2021/08/14 10:33:57;;;;;;;8.10;4.40;;;28.90;1.00;;;;;;5073105;28;20465;-54
2021/08/14 10:36:26;;;;;;;5.30;4.80;;;29.30;1.00;;;;;;5071585;28;20452;-53
2021/08/14 10:38:52;;;;;;;7.20;4.90;;;29.20;1.00;;;;;;5087775;28;20499;-55
2021/08/14 10:41:19;;;;;;;5.30;4.37;;;29.60;1.00;;;;;;5092779;28;20439;-54
2021/08/14 10:43:53;;;;;;;8.90;4.37;;;30.10;1.00;;;;;;5082753;28;20419;-55
2021/08/14 10:46:31;;;;;;;5.00;4.17;;;30.60;1.00;;;;;;5078567;28;20414;-54
2021/08/14 10:48:58;;;;;;;4.40;4.00;;;30.70;1.00;;;;;;5093130;28;20778;-54
2021/08/14 10:51:43;;;;;;;6.13;4.20;;;30.50;1.00;;;;;;5092384;28;20464;-56
2021/08/14 10:54:09;;;;;;;5.17;4.57;;;30.50;1.00;;;;;;5091848;28;20462;-53
2021/08/14 10:56:54;;;;;;;7.90;4.87;;;30.90;1.00;;;;;;5077017;28;20468;-56
2021/08/14 10:59:35;;;;;;;5.70;5.20;;;30.40;1.00;;;;;;5079357;28;20190;-54
2021/08/14 11:02:21;;;;;;;5.30;4.30;;;29.80;1.00;;;;;;5073431;28;20429;-54
2021/08/14 11:04:57;;;;;;;6.17;4.33;;;29.60;1.00;;;;;;5068381;28;20540;-54
2021/08/14 11:07:23;;;;;;;4.90;4.50;;;29.70;1.00;;;;;;5072461;28;20448;-54
2021/08/14 11:10:11;;;;;;;6.87;4.10;;;32.20;1.00;;;;;;5075351;28;20455;-56
2021/08/14 11:12:48;;;;;;;4.40;4.00;;;29.90;1.00;;;;;;5088843;28;20532;-53
2021/08/14 11:15:19;;;;;;;4.27;3.87;;;29.90;1.00;;;;;;5092601;28;20424;-53
2021/08/14 11:17:55;;;;;;;4.23;3.83;;;30.10;1.00;;;;;;5085839;28;20558;-54
2021/08/14 11:20:24;;;;;;;6.50;4.30;;;30.20;1.00;;;;;;5077805;28;20440;-54
2021/08/14 11:22:54;;;;;;;6.70;4.40;;;29.80;1.00;;;;;;5092359;28;20437;-53
2021/08/14 11:25:25;;;;;;;4.97;3.97;;;29.90;1.00;;;;;;5092395;28;20447;-55
2021/08/14 11:27:56;;;;;;;4.80;4.27;;;29.50;1.00;;;;;;5092463;28;21021;-55
2021/08/14 11:30:26;;;;;;;5.23;4.73;;;29.50;1.00;;;;;;5092143;28;20464;-54
2021/08/14 11:32:53;;;;;;;5.03;3.93;;;29.60;1.00;;;;;;5092388;28;20406;-53
2021/08/14 11:35:21;;;;;;;5.10;3.90;;;29.70;1.00;;;;;;5076955;28;20841;-52
2021/08/14 11:37:49;;;;;;;4.87;4.37;;;29.60;1.00;;;;;;5072018;28;20502;-53
2021/08/14 11:40:15;;;;;;;4.90;3.70;;;29.60;1.00;;;;;;5078016;28;20432;-55
2021/08/14 11:42:40;;;;;;;4.80;4.30;;;29.70;1.00;;;;;;5091640;28;20959;-53
2021/08/14 11:45:07;;;;;;;4.53;4.10;;;30.00;1.00;;;;;;5090585;28;20909;-54
2021/08/14 11:47:38;;;;;;;5.40;4.57;;;30.00;1.00;;;;;;5091916;28;20183;-52
2021/08/14 11:50:08;;;;;;;4.60;4.20;;;29.70;1.00;;;;;;5091816;28;20857;-53
2021/08/14 11:52:35;;;;;;;5.70;4.33;;;29.50;1.00;;;;;;5082424;28;20939;-54
2021/08/14 11:55:03;;;;;;;7.20;4.07;;;29.60;1.00;;;;;;5071606;28;20427;-53
2021/08/14 11:57:31;;;;;;;4.33;3.93;;;30.00;1.00;;;;;;5089617;28;20424;-55
2021/08/14 11:59:59;;;;;;;5.63;4.20;;;29.90;1.00;;;;;;5082662;28;20450;-54
2021/08/14 12:02:25;;;;;;;4.10;3.70;;;30.00;1.00;;;;;;5071254;28;20424;-53
2021/08/14 12:04:55;;;;;;;4.80;4.40;;;30.20;1.00;;;;;;5071385;28;20526;-53
2021/08/14 12:07:22;;;;;;;5.33;4.33;;;30.60;1.00;;;;;;5080114;28;20470;-54
2021/08/14 12:09:48;;;;;;;5.00;4.50;;;30.50;1.00;;;;;;5088265;28;20532;-53
2021/08/14 12:12:21;;;;;;;5.00;4.50;;;30.50;1.00;;;;;;5077512;28;20424;-53
2021/08/14 12:14:48;;;;;;;4.37;3.97;;;30.70;1.00;;;;;;5088606;28;20771;-52
2021/08/14 12:17:14;;;;;;;6.23;4.30;;;30.80;1.00;;;;;;5072727;28;20982;-53
2021/08/14 12:19:47;;;;;;;3.80;3.50;;;30.30;1.00;;;;;;5079064;28;20425;-55
2021/08/14 12:22:16;;;;;;;5.00;4.27;;;30.10;1.00;;;;;;5091179;28;20407;-53
2021/08/14 12:24:42;;;;;;;4.97;4.00;;;30.00;1.00;;;;;;5091492;28;20429;-53
2021/08/14 12:27:31;;;;;;;6.37;4.23;;;30.20;1.00;;;;;;5090783;28;20821;-54
2021/08/14 12:30:20;;;;;;;6.57;4.50;;;30.60;1.00;;;;;;5071125;28;20554;-55
2021/08/14 12:32:47;;;;;;;4.03;3.60;;;30.70;1.00;;;;;;5072416;28;20425;-53
2021/08/14 12:35:24;;;;;;;4.73;3.50;;;30.70;1.00;;;;;;5070656;28;20445;-53
2021/08/14 12:37:51;;;;;;;5.00;4.43;;;30.60;1.00;;;;;;5077373;28;20424;-54
2021/08/14 12:40:21;;;;;;;4.70;4.20;;;30.40;1.00;;;;;;5085800;28;20854;-54
2021/08/14 12:42:47;;;;;;;4.83;4.43;;;30.30;1.00;;;;;;5071078;28;21005;-54
2021/08/14 12:45:13;;;;;;;4.30;3.83;;;30.10;1.00;;;;;;5071077;28;20544;-54
2021/08/14 12:47:38;;;;;;;4.80;4.40;;;30.10;1.00;;;;;;5077569;28;20207;-53
2021/08/14 12:50:11;;;;;;;4.17;3.80;;;30.20;1.00;;;;;;5090905;28;20254;-55